Terminal Aerodrome Forecast
Issued by NWS

Home | Current Version | Previous Version | Graphics & Text | Print | Product List | Glossary On
Versions: 1 2 3 4 5 6 7 8 9 10 11 12 13 14 15 16 17 18 19 20 21 22 23 24 25 26 27 28 29 30
611
FTUS43 KLOT 050117 AAA
TAFORD
TAF AMD
KORD 050117Z 0501/0606 VRB03KT 2SM -SN BR SCT008 BKN015 OVC035
     FM050500 25008KT 3SM BR OVC008
     FM050900 25007KT 1SM BR OVC008
      TEMPO 0509/0513 1/2SM FZFG VV005
     FM051500 20006KT 2SM BR OVC008
     FM051900 19009KT 6SM BR OVC012
     FM060200 15006KT P6SM OVC020=

USA.gov is the U.S. government's official web portal to all federal, state and local government web resources and services.